sensor_id;sensor_type;location;lat;lon;timestamp;temperature;humidity
31729;DHT22;18309;43.658;1.312;2022-10-16T00:01:16;20.10;99.90
31729;DHT22;18309;43.658;1.312;2022-10-16T00:03:43;20.10;99.90
31729;DHT22;18309;43.658;1.312;2022-10-16T00:06:10;20.10;99.90
31729;DHT22;18309;43.658;1.312;2022-10-16T00:08:38;20.00;99.90
31729;DHT22;18309;43.658;1.312;2022-10-16T00:11:37;20.00;99.90
31729;DHT22;18309;43.658;1.312;2022-10-16T00:14:08;20.00;99.90
31729;DHT22;18309;43.658;1.312;2022-10-16T00:16:34;20.00;99.90
31729;DHT22;18309;43.658;1.312;2022-10-16T00:19:00;20.00;99.90
31729;DHT22;18309;43.658;1.312;2022-10-16T00:21:28;20.00;99.90
31729;DHT22;18309;43.658;1.312;2022-10-16T00:24:06;20.00;99.90
31729;DHT22;18309;43.658;1.312;2022-10-16T00:26:35;20.00;99.90
31729;DHT22;18309;43.658;1.312;2022-10-16T00:29:02;20.00;99.90
31729;DHT22;18309;43.658;1.312;2022-10-16T00:31:28;20.00;99.90
31729;DHT22;18309;43.658;1.312;2022-10-16T00:33:55;20.00;99.90
31729;DHT22;18309;43.658;1.312;2022-10-16T00:36:23;20.00;99.90
31729;DHT22;18309;43.658;1.312;2022-10-16T00:38:53;20.00;99.90
31729;DHT22;18309;43.658;1.312;2022-10-16T00:41:20;20.00;99.90
31729;DHT22;18309;43.658;1.312;2022-10-16T00:43:58;20.00;99.90
31729;DHT22;18309;43.658;1.312;2022-10-16T00:46:37;20.00;99.90
31729;DHT22;18309;43.658;1.312;2022-10-16T00:49:12;20.00;99.90
31729;DHT22;18309;43.658;1.312;2022-10-16T00:51:46;20.00;99.90
31729;DHT22;18309;43.658;1.312;2022-10-16T00:54:21;19.90;99.90
31729;DHT22;18309;43.658;1.312;2022-10-16T00:56:48;20.00;99.90
31729;DHT22;18309;43.658;1.312;2022-10-16T00:59:24;20.00;99.90
31729;DHT22;18309;43.658;1.312;2022-10-16T01:01:51;19.90;99.90
31729;DHT22;18309;43.658;1.312;2022-10-16T01:04:17;19.90;99.90
31729;DHT22;18309;43.658;1.312;2022-10-16T01:12:25;19.90;99.90
31729;DHT22;18309;43.658;1.312;2022-10-16T01:14:59;19.90;99.90
31729;DHT22;18309;43.658;1.312;2022-10-16T01:17:49;19.90;99.90
31729;DHT22;18309;43.658;1.312;2022-10-16T01:21:11;19.90;99.90
31729;DHT22;18309;43.658;1.312;2022-10-16T01:26:20;19.90;99.90
31729;DHT22;18309;43.658;1.312;2022-10-16T01:32:40;19.90;99.90
31729;DHT22;18309;43.658;1.312;2022-10-16T01:35:26;19.90;99.90
31729;DHT22;18309;43.658;1.312;2022-10-16T01:40:44;19.90;99.90
31729;DHT22;18309;43.658;1.312;2022-10-16T01:43:20;19.90;99.90
31729;DHT22;18309;43.658;1.312;2022-10-16T01:45:46;19.90;99.90
31729;DHT22;18309;43.658;1.312;2022-10-16T01:48:14;19.90;99.90
31729;DHT22;18309;43.658;1.312;2022-10-16T01:50:43;19.90;99.90
31729;DHT22;18309;43.658;1.312;2022-10-16T01:53:11;19.90;99.90
31729;DHT22;18309;43.658;1.312;2022-10-16T01:55:40;19.90;99.90
31729;DHT22;18309;43.658;1.312;2022-10-16T01:58:12;19.90;99.90
31729;DHT22;18309;43.658;1.312;2022-10-16T02:00:42;19.90;99.90
31729;DHT22;18309;43.658;1.312;2022-10-16T02:03:11;19.90;99.90
31729;DHT22;18309;43.658;1.312;2022-10-16T02:08:08;19.80;99.90
31729;DHT22;18309;43.658;1.312;2022-10-16T02:10:35;19.80;99.90
31729;DHT22;18309;43.658;1.312;2022-10-16T02:13:15;19.80;99.90
31729;DHT22;18309;43.658;1.312;2022-10-16T02:15:42;19.80;99.90
31729;DHT22;18309;43.658;1.312;2022-10-16T02:18:09;19.80;99.90
31729;DHT22;18309;43.658;1.312;2022-10-16T02:21:04;19.80;99.90
31729;DHT22;18309;43.658;1.312;2022-10-16T02:23:49;19.80;99.90
31729;DHT22;18309;43.658;1.312;2022-10-16T02:26:22;19.80;99.90
31729;DHT22;18309;43.658;1.312;2022-10-16T02:28:55;19.80;99.90
31729;DHT22;18309;43.658;1.312;2022-10-16T02:31:26;19.70;99.90
31729;DHT22;18309;43.658;1.312;2022-10-16T02:33:55;19.70;99.90
31729;DHT22;18309;43.658;1.312;2022-10-16T02:36:23;19.80;99.90
31729;DHT22;18309;43.658;1.312;2022-10-16T02:38:49;19.70;99.90
31729;DHT22;18309;43.658;1.312;2022-10-16T02:41:15;19.70;99.90
31729;DHT22;18309;43.658;1.312;2022-10-16T02:43:41;19.70;99.90
31729;DHT22;18309;43.658;1.312;2022-10-16T02:46:07;19.70;99.90
31729;DHT22;18309;43.658;1.312;2022-10-16T02:48:33;19.70;99.90
31729;DHT22;18309;43.658;1.312;2022-10-16T02:50:58;19.70;99.90
31729;DHT22;18309;43.658;1.312;2022-10-16T02:53:24;19.70;99.90
31729;DHT22;18309;43.658;1.312;2022-10-16T02:55:50;19.60;99.90
31729;DHT22;18309;43.658;1.312;2022-10-16T02:58:15;19.70;99.90
31729;DHT22;18309;43.658;1.312;2022-10-16T03:00:41;19.60;99.90
31729;DHT22;18309;43.658;1.312;2022-10-16T03:03:07;19.60;99.90
31729;DHT22;18309;43.658;1.312;2022-10-16T03:05:33;19.60;99.90
31729;DHT22;18309;43.658;1.312;2022-10-16T03:07:59;19.60;99.90
31729;DHT22;18309;43.658;1.312;2022-10-16T03:10:26;19.60;99.90
31729;DHT22;18309;43.658;1.312;2022-10-16T03:12:52;19.60;99.90
31729;DHT22;18309;43.658;1.312;2022-10-16T03:15:17;19.60;99.90
31729;DHT22;18309;43.658;1.312;2022-10-16T03:17:43;19.60;99.90
31729;DHT22;18309;43.658;1.312;2022-10-16T03:20:09;19.50;99.90
31729;DHT22;18309;43.658;1.312;2022-10-16T03:22:35;19.50;99.90
31729;DHT22;18309;43.658;1.312;2022-10-16T03:25:00;19.50;99.90
31729;DHT22;18309;43.658;1.312;2022-10-16T03:27:26;19.50;99.90
31729;DHT22;18309;43.658;1.312;2022-10-16T03:29:52;19.50;99.90
31729;DHT22;18309;43.658;1.312;2022-10-16T03:32:18;19.50;99.90
31729;DHT22;18309;43.658;1.312;2022-10-16T03:34:45;19.50;99.90
31729;DHT22;18309;43.658;1.312;2022-10-16T03:37:11;19.50;99.90
31729;DHT22;18309;43.658;1.312;2022-10-16T03:39:36;19.50;99.90
31729;DHT22;18309;43.658;1.312;2022-10-16T03:42:02;19.40;99.90
31729;DHT22;18309;43.658;1.312;2022-10-16T03:44:28;19.40;99.90
31729;DHT22;18309;43.658;1.312;2022-10-16T03:46:53;19.40;99.90
31729;DHT22;18309;43.658;1.312;2022-10-16T03:49:19;19.40;99.90
31729;DHT22;18309;43.658;1.312;2022-10-16T03:51:45;19.50;99.90
31729;DHT22;18309;43.658;1.312;2022-10-16T03:54:11;19.40;99.90
31729;DHT22;18309;43.658;1.312;2022-10-16T03:56:37;19.40;99.90
31729;DHT22;18309;43.658;1.312;2022-10-16T03:59:03;19.40;99.90
31729;DHT22;18309;43.658;1.312;2022-10-16T04:01:29;19.40;99.90
31729;DHT22;18309;43.658;1.312;2022-10-16T04:03:54;19.40;99.90
31729;DHT22;18309;43.658;1.312;2022-10-16T04:06:20;19.40;99.90
31729;DHT22;18309;43.658;1.312;2022-10-16T04:08:46;19.40;99.90
31729;DHT22;18309;43.658;1.312;2022-10-16T04:11:11;19.40;99.90
31729;DHT22;18309;43.658;1.312;2022-10-16T04:13:37;19.40;99.90
31729;DHT22;18309;43.658;1.312;2022-10-16T04:16:03;19.50;99.90
31729;DHT22;18309;43.658;1.312;2022-10-16T04:18:29;19.50;99.90
31729;DHT22;18309;43.658;1.312;2022-10-16T04:20:54;19.40;99.90
31729;DHT22;18309;43.658;1.312;2022-10-16T04:23:20;19.50;99.90
31729;DHT22;18309;43.658;1.312;2022-10-16T04:25:48;19.50;99.90
31729;DHT22;18309;43.658;1.312;2022-10-16T04:28:14;19.50;99.90
31729;DHT22;18309;43.658;1.312;2022-10-16T04:30:39;19.50;99.90
31729;DHT22;18309;43.658;1.312;2022-10-16T04:33:05;19.50;99.90
31729;DHT22;18309;43.658;1.312;2022-10-16T04:35:31;19.50;99.90
31729;DHT22;18309;43.658;1.312;2022-10-16T04:37:59;19.50;99.90
31729;DHT22;18309;43.658;1.312;2022-10-16T04:40:25;19.50;99.90
31729;DHT22;18309;43.658;1.312;2022-10-16T04:42:50;19.50;99.90
31729;DHT22;18309;43.658;1.312;2022-10-16T04:45:16;19.50;99.90
31729;DHT22;18309;43.658;1.312;2022-10-16T04:47:42;19.50;99.90
31729;DHT22;18309;43.658;1.312;2022-10-16T04:50:08;19.40;99.90
31729;DHT22;18309;43.658;1.312;2022-10-16T04:52:33;19.50;99.90
31729;DHT22;18309;43.658;1.312;2022-10-16T04:54:59;19.40;99.90
31729;DHT22;18309;43.658;1.312;2022-10-16T04:57:28;19.50;99.90
31729;DHT22;18309;43.658;1.312;2022-10-16T04:59:54;19.50;99.90
31729;DHT22;18309;43.658;1.312;2022-10-16T05:02:20;19.50;99.90
31729;DHT22;18309;43.658;1.312;2022-10-16T05:04:46;19.50;99.90
31729;DHT22;18309;43.658;1.312;2022-10-16T05:07:11;19.50;99.90
31729;DHT22;18309;43.658;1.312;2022-10-16T05:09:37;19.50;99.90
31729;DHT22;18309;43.658;1.312;2022-10-16T05:12:03;19.50;99.90
31729;DHT22;18309;43.658;1.312;2022-10-16T05:14:29;19.50;99.90
31729;DHT22;18309;43.658;1.312;2022-10-16T05:16:55;19.50;99.90
31729;DHT22;18309;43.658;1.312;2022-10-16T05:19:20;19.50;99.90
31729;DHT22;18309;43.658;1.312;2022-10-16T05:21:46;19.50;99.90
31729;DHT22;18309;43.658;1.312;2022-10-16T05:24:12;19.50;99.90
31729;DHT22;18309;43.658;1.312;2022-10-16T05:26:37;19.50;99.90
31729;DHT22;18309;43.658;1.312;2022-10-16T05:29:03;19.50;99.90
31729;DHT22;18309;43.658;1.312;2022-10-16T05:31:29;19.50;99.90
31729;DHT22;18309;43.658;1.312;2022-10-16T05:34:02;19.50;99.90
31729;DHT22;18309;43.658;1.312;2022-10-16T05:36:27;19.50;99.90
31729;DHT22;18309;43.658;1.312;2022-10-16T05:38:53;19.50;99.90
31729;DHT22;18309;43.658;1.312;2022-10-16T05:41:19;19.50;99.90
31729;DHT22;18309;43.658;1.312;2022-10-16T05:43:48;19.50;99.90
31729;DHT22;18309;43.658;1.312;2022-10-16T05:46:14;19.50;99.90
31729;DHT22;18309;43.658;1.312;2022-10-16T05:48:40;19.50;99.90
31729;DHT22;18309;43.658;1.312;2022-10-16T05:51:08;19.50;99.90
31729;DHT22;18309;43.658;1.312;2022-10-16T05:53:36;19.50;99.90
31729;DHT22;18309;43.658;1.312;2022-10-16T05:56:03;19.50;99.90
31729;DHT22;18309;43.658;1.312;2022-10-16T05:58:31;19.50;99.90
31729;DHT22;18309;43.658;1.312;2022-10-16T06:00:59;19.50;99.90
31729;DHT22;18309;43.658;1.312;2022-10-16T06:03:25;19.50;99.90
31729;DHT22;18309;43.658;1.312;2022-10-16T06:05:51;19.50;99.90
31729;DHT22;18309;43.658;1.312;2022-10-16T06:08:18;19.50;99.90
31729;DHT22;18309;43.658;1.312;2022-10-16T06:10:45;19.60;99.90
31729;DHT22;18309;43.658;1.312;2022-10-16T06:13:13;19.50;99.90
31729;DHT22;18309;43.658;1.312;2022-10-16T06:15:41;19.60;99.90
31729;DHT22;18309;43.658;1.312;2022-10-16T06:18:08;19.60;99.90
31729;DHT22;18309;43.658;1.312;2022-10-16T06:20:34;19.60;99.90
31729;DHT22;18309;43.658;1.312;2022-10-16T06:23:00;19.60;99.90
31729;DHT22;18309;43.658;1.312;2022-10-16T06:25:26;19.50;99.90
31729;DHT22;18309;43.658;1.312;2022-10-16T06:27:51;19.60;99.90
31729;DHT22;18309;43.658;1.312;2022-10-16T06:30:17;19.60;99.90
31729;DHT22;18309;43.658;1.312;2022-10-16T06:32:43;19.50;99.90
31729;DHT22;18309;43.658;1.312;2022-10-16T06:35:08;19.60;99.90
31729;DHT22;18309;43.658;1.312;2022-10-16T06:37:34;19.50;99.90
31729;DHT22;18309;43.658;1.312;2022-10-16T06:40:00;19.60;99.90
31729;DHT22;18309;43.658;1.312;2022-10-16T06:42:25;19.60;99.90
31729;DHT22;18309;43.658;1.312;2022-10-16T06:44:51;19.60;99.90
31729;DHT22;18309;43.658;1.312;2022-10-16T06:47:17;19.60;99.90
31729;DHT22;18309;43.658;1.312;2022-10-16T06:49:43;19.60;99.90
31729;DHT22;18309;43.658;1.312;2022-10-16T06:52:08;19.60;99.90
31729;DHT22;18309;43.658;1.312;2022-10-16T06:54:34;19.60;99.90
31729;DHT22;18309;43.658;1.312;2022-10-16T06:57:00;19.60;99.90
31729;DHT22;18309;43.658;1.312;2022-10-16T06:59:27;19.60;99.90
31729;DHT22;18309;43.658;1.312;2022-10-16T07:01:52;19.60;99.90
31729;DHT22;18309;43.658;1.312;2022-10-16T07:04:18;19.60;99.90
31729;DHT22;18309;43.658;1.312;2022-10-16T07:06:44;19.60;99.90
31729;DHT22;18309;43.658;1.312;2022-10-16T07:09:10;19.60;99.90
31729;DHT22;18309;43.658;1.312;2022-10-16T07:11:37;19.60;99.90
31729;DHT22;18309;43.658;1.312;2022-10-16T07:14:04;19.60;99.90
31729;DHT22;18309;43.658;1.312;2022-10-16T07:16:32;19.60;99.90
31729;DHT22;18309;43.658;1.312;2022-10-16T07:18:59;19.70;99.90
31729;DHT22;18309;43.658;1.312;2022-10-16T07:21:28;19.60;99.90
31729;DHT22;18309;43.658;1.312;2022-10-16T07:23:59;19.60;99.90
31729;DHT22;18309;43.658;1.312;2022-10-16T07:26:26;19.60;99.90
31729;DHT22;18309;43.658;1.312;2022-10-16T07:28:52;19.60;99.90
31729;DHT22;18309;43.658;1.312;2022-10-16T07:31:20;19.70;99.90
31729;DHT22;18309;43.658;1.312;2022-10-16T07:33:47;19.70;99.90
31729;DHT22;18309;43.658;1.312;2022-10-16T07:36:14;19.70;99.90
31729;DHT22;18309;43.658;1.312;2022-10-16T07:38:40;19.70;99.90
31729;DHT22;18309;43.658;1.312;2022-10-16T07:41:10;19.70;99.90
31729;DHT22;18309;43.658;1.312;2022-10-16T07:43:36;19.70;99.90
31729;DHT22;18309;43.658;1.312;2022-10-16T07:46:02;19.70;99.90
31729;DHT22;18309;43.658;1.312;2022-10-16T07:48:31;19.70;99.90
31729;DHT22;18309;43.658;1.312;2022-10-16T07:50:58;19.70;99.90
31729;DHT22;18309;43.658;1.312;2022-10-16T07:53:24;19.70;99.90
31729;DHT22;18309;43.658;1.312;2022-10-16T07:55:50;19.70;99.90
31729;DHT22;18309;43.658;1.312;2022-10-16T07:58:16;19.60;99.90
31729;DHT22;18309;43.658;1.312;2022-10-16T08:00:41;19.60;99.90
31729;DHT22;18309;43.658;1.312;2022-10-16T08:03:08;19.60;99.90
31729;DHT22;18309;43.658;1.312;2022-10-16T08:05:34;19.60;99.90
31729;DHT22;18309;43.658;1.312;2022-10-16T08:08:01;19.60;99.90
31729;DHT22;18309;43.658;1.312;2022-10-16T08:10:28;19.80;99.90
31729;DHT22;18309;43.658;1.312;2022-10-16T08:12:54;19.90;99.90
31729;DHT22;18309;43.658;1.312;2022-10-16T08:15:20;20.00;99.90
31729;DHT22;18309;43.658;1.312;2022-10-16T08:17:59;20.10;99.90
31729;DHT22;18309;43.658;1.312;2022-10-16T08:20:26;20.20;99.90
31729;DHT22;18309;43.658;1.312;2022-10-16T08:22:52;20.20;99.90
31729;DHT22;18309;43.658;1.312;2022-10-16T08:25:18;20.30;99.90
31729;DHT22;18309;43.658;1.312;2022-10-16T08:27:44;20.30;99.90
31729;DHT22;18309;43.658;1.312;2022-10-16T08:30:10;20.40;99.90
31729;DHT22;18309;43.658;1.312;2022-10-16T08:32:36;20.50;99.90
31729;DHT22;18309;43.658;1.312;2022-10-16T08:35:02;20.50;99.90
31729;DHT22;18309;43.658;1.312;2022-10-16T08:37:31;20.60;99.90
31729;DHT22;18309;43.658;1.312;2022-10-16T08:39:57;20.60;99.90
31729;DHT22;18309;43.658;1.312;2022-10-16T08:45:30;20.80;99.90
31729;DHT22;18309;43.658;1.312;2022-10-16T08:48:16;20.80;99.90
31729;DHT22;18309;43.658;1.312;2022-10-16T08:50:43;20.90;99.90
31729;DHT22;18309;43.658;1.312;2022-10-16T08:53:23;20.90;99.90
31729;DHT22;18309;43.658;1.312;2022-10-16T08:55:52;21.00;99.90
31729;DHT22;18309;43.658;1.312;2022-10-16T08:58:25;21.00;99.90
31729;DHT22;18309;43.658;1.312;2022-10-16T09:01:03;21.10;99.90
31729;DHT22;18309;43.658;1.312;2022-10-16T09:03:49;21.10;99.90
31729;DHT22;18309;43.658;1.312;2022-10-16T09:11:58;21.10;99.90
31729;DHT22;18309;43.658;1.312;2022-10-16T09:17:15;21.20;99.90
31729;DHT22;18309;43.658;1.312;2022-10-16T09:19:53;21.20;99.90
31729;DHT22;18309;43.658;1.312;2022-10-16T09:22:23;21.30;99.90
31729;DHT22;18309;43.658;1.312;2022-10-16T09:24:52;21.30;99.90
31729;DHT22;18309;43.658;1.312;2022-10-16T09:27:18;21.40;99.90
31729;DHT22;18309;43.658;1.312;2022-10-16T09:29:44;21.50;99.90
31729;DHT22;18309;43.658;1.312;2022-10-16T09:32:13;21.50;99.90
31729;DHT22;18309;43.658;1.312;2022-10-16T09:34:45;21.60;99.90
31729;DHT22;18309;43.658;1.312;2022-10-16T09:37:14;21.60;99.90
31729;DHT22;18309;43.658;1.312;2022-10-16T09:42:18;21.70;99.90
31729;DHT22;18309;43.658;1.312;2022-10-16T09:44:51;21.80;99.90
31729;DHT22;18309;43.658;1.312;2022-10-16T09:47:21;21.90;99.90
31729;DHT22;18309;43.658;1.312;2022-10-16T09:49:58;22.00;99.90
31729;DHT22;18309;43.658;1.312;2022-10-16T09:52:27;22.10;99.90
31729;DHT22;18309;43.658;1.312;2022-10-16T09:55:12;22.10;99.90
31729;DHT22;18309;43.658;1.312;2022-10-16T09:57:49;22.30;99.90
31729;DHT22;18309;43.658;1.312;2022-10-16T10:00:16;22.30;99.90
31729;DHT22;18309;43.658;1.312;2022-10-16T10:02:43;22.40;99.90
31729;DHT22;18309;43.658;1.312;2022-10-16T10:05:29;22.40;99.90
31729;DHT22;18309;43.658;1.312;2022-10-16T10:07:59;22.50;99.90
31729;DHT22;18309;43.658;1.312;2022-10-16T10:10:28;22.50;99.90
31729;DHT22;18309;43.658;1.312;2022-10-16T10:12:54;22.60;99.90
31729;DHT22;18309;43.658;1.312;2022-10-16T10:15:21;22.70;99.90
31729;DHT22;18309;43.658;1.312;2022-10-16T10:17:50;22.80;99.90
31729;DHT22;18309;43.658;1.312;2022-10-16T10:20:30;22.90;99.90
31729;DHT22;18309;43.658;1.312;2022-10-16T10:22:58;22.90;99.90
31729;DHT22;18309;43.658;1.312;2022-10-16T10:28:46;23.00;99.90
31729;DHT22;18309;43.658;1.312;2022-10-16T10:36:48;23.10;99.90
31729;DHT22;18309;43.658;1.312;2022-10-16T10:39:41;23.10;99.90
31729;DHT22;18309;43.658;1.312;2022-10-16T10:45:17;23.20;99.90
31729;DHT22;18309;43.658;1.312;2022-10-16T10:56:37;23.10;99.90
31729;DHT22;18309;43.658;1.312;2022-10-16T11:01:50;23.30;99.90
31729;DHT22;18309;43.658;1.312;2022-10-16T11:07:17;23.40;99.90
31729;DHT22;18309;43.658;1.312;2022-10-16T11:09:51;23.40;99.90
31729;DHT22;18309;43.658;1.312;2022-10-16T11:12:25;23.60;99.90
31729;DHT22;18309;43.658;1.312;2022-10-16T11:17:43;23.80;99.30
31729;DHT22;18309;43.658;1.312;2022-10-16T11:23:16;24.00;99.40
31729;DHT22;18309;43.658;1.312;2022-10-16T11:25:44;24.00;99.40
31729;DHT22;18309;43.658;1.312;2022-10-16T11:28:32;24.10;99.10
31729;DHT22;18309;43.658;1.312;2022-10-16T11:34:03;24.40;98.80
31729;DHT22;18309;43.658;1.312;2022-10-16T11:36:37;24.60;97.90
31729;DHT22;18309;43.658;1.312;2022-10-16T11:39:21;24.60;98.10
31729;DHT22;18309;43.658;1.312;2022-10-16T11:41:52;24.60;97.70
31729;DHT22;18309;43.658;1.312;2022-10-16T11:49:33;25.00;97.70
31729;DHT22;18309;43.658;1.312;2022-10-16T11:52:33;25.10;97.50
31729;DHT22;18309;43.658;1.312;2022-10-16T11:55:16;25.10;96.50
31729;DHT22;18309;43.658;1.312;2022-10-16T11:57:50;25.30;96.20
31729;DHT22;18309;43.658;1.312;2022-10-16T12:00:28;25.40;95.60
31729;DHT22;18309;43.658;1.312;2022-10-16T12:03:05;25.40;95.90
31729;DHT22;18309;43.658;1.312;2022-10-16T12:08:17;25.40;95.20
31729;DHT22;18309;43.658;1.312;2022-10-16T12:10:45;25.40;95.30
31729;DHT22;18309;43.658;1.312;2022-10-16T12:18:44;25.60;95.20
31729;DHT22;18309;43.658;1.312;2022-10-16T12:21:12;25.60;94.80
31729;DHT22;18309;43.658;1.312;2022-10-16T12:23:51;25.70;94.50
31729;DHT22;18309;43.658;1.312;2022-10-16T12:26:43;25.60;94.60
31729;DHT22;18309;43.658;1.312;2022-10-16T12:32:03;25.70;94.00
31729;DHT22;18309;43.658;1.312;2022-10-16T12:36:55;25.90;94.10
31729;DHT22;18309;43.658;1.312;2022-10-16T12:39:27;26.00;94.10
31729;DHT22;18309;43.658;1.312;2022-10-16T12:42:04;26.20;93.60
31729;DHT22;18309;43.658;1.312;2022-10-16T12:44:35;26.30;93.20
31729;DHT22;18309;43.658;1.312;2022-10-16T12:47:01;26.20;92.40
31729;DHT22;18309;43.658;1.312;2022-10-16T12:49:37;26.20;92.60
31729;DHT22;18309;43.658;1.312;2022-10-16T12:52:03;26.30;92.60
31729;DHT22;18309;43.658;1.312;2022-10-16T12:54:37;26.40;92.30
31729;DHT22;18309;43.658;1.312;2022-10-16T13:10:34;27.10;90.60
31729;DHT22;18309;43.658;1.312;2022-10-16T13:15:58;27.60;89.80
31729;DHT22;18309;43.658;1.312;2022-10-16T13:19:08;27.90;90.00
31729;DHT22;18309;43.658;1.312;2022-10-16T13:30:19;28.60;87.50
31729;DHT22;18309;43.658;1.312;2022-10-16T13:33:02;29.30;85.00
31729;DHT22;18309;43.658;1.312;2022-10-16T13:35:32;31.20;80.00
31729;DHT22;18309;43.658;1.312;2022-10-16T13:38:15;33.00;73.80
31729;DHT22;18309;43.658;1.312;2022-10-16T13:41:17;33.60;72.10
31729;DHT22;18309;43.658;1.312;2022-10-16T13:43:51;34.00;71.80
31729;DHT22;18309;43.658;1.312;2022-10-16T13:46:20;34.70;69.30
31729;DHT22;18309;43.658;1.312;2022-10-16T13:49:10;34.90;67.80
31729;DHT22;18309;43.658;1.312;2022-10-16T13:51:37;34.80;67.40
31729;DHT22;18309;43.658;1.312;2022-10-16T13:54:02;34.60;68.10
31729;DHT22;18309;43.658;1.312;2022-10-16T13:56:30;35.50;66.30
31729;DHT22;18309;43.658;1.312;2022-10-16T13:59:04;36.50;63.40
31729;DHT22;18309;43.658;1.312;2022-10-16T14:01:34;36.50;63.60
31729;DHT22;18309;43.658;1.312;2022-10-16T14:04:05;37.10;63.20
31729;DHT22;18309;43.658;1.312;2022-10-16T14:06:33;35.90;65.80
31729;DHT22;18309;43.658;1.312;2022-10-16T14:09:23;34.40;70.00
31729;DHT22;18309;43.658;1.312;2022-10-16T14:12:03;33.10;73.30
31729;DHT22;18309;43.658;1.312;2022-10-16T14:14:46;32.60;75.40
31729;DHT22;18309;43.658;1.312;2022-10-16T14:17:25;31.90;76.20
31729;DHT22;18309;43.658;1.312;2022-10-16T14:19:54;31.50;77.20
31729;DHT22;18309;43.658;1.312;2022-10-16T14:22:42;31.30;77.70
31729;DHT22;18309;43.658;1.312;2022-10-16T14:33:24;30.20;82.70
31729;DHT22;18309;43.658;1.312;2022-10-16T14:38:28;29.40;84.70
31729;DHT22;18309;43.658;1.312;2022-10-16T14:40:57;29.00;86.00
31729;DHT22;18309;43.658;1.312;2022-10-16T14:43:42;28.60;87.50
31729;DHT22;18309;43.658;1.312;2022-10-16T14:46:22;28.30;88.40
31729;DHT22;18309;43.658;1.312;2022-10-16T14:49:02;28.00;89.90
31729;DHT22;18309;43.658;1.312;2022-10-16T14:51:29;27.60;90.30
31729;DHT22;18309;43.658;1.312;2022-10-16T14:53:54;27.40;90.80
31729;DHT22;18309;43.658;1.312;2022-10-16T14:56:23;27.20;91.00
31729;DHT22;18309;43.658;1.312;2022-10-16T14:58:52;27.10;91.20
31729;DHT22;18309;43.658;1.312;2022-10-16T15:01:19;26.80;91.40
31729;DHT22;18309;43.658;1.312;2022-10-16T15:03:45;26.80;91.60
31729;DHT22;18309;43.658;1.312;2022-10-16T15:06:12;26.60;92.10
31729;DHT22;18309;43.658;1.312;2022-10-16T15:08:38;26.60;92.50
31729;DHT22;18309;43.658;1.312;2022-10-16T15:11:04;26.50;92.60
31729;DHT22;18309;43.658;1.312;2022-10-16T15:13:29;26.50;92.90
31729;DHT22;18309;43.658;1.312;2022-10-16T15:15:55;26.50;92.40
31729;DHT22;18309;43.658;1.312;2022-10-16T15:18:21;26.60;92.70
31729;DHT22;18309;43.658;1.312;2022-10-16T15:20:49;26.40;92.90
31729;DHT22;18309;43.658;1.312;2022-10-16T15:23:21;26.40;93.10
31729;DHT22;18309;43.658;1.312;2022-10-16T15:28:15;26.40;93.10
31729;DHT22;18309;43.658;1.312;2022-10-16T15:30:41;26.50;93.10
31729;DHT22;18309;43.658;1.312;2022-10-16T15:33:16;26.50;92.80
31729;DHT22;18309;43.658;1.312;2022-10-16T15:35:45;26.60;93.30
31729;DHT22;18309;43.658;1.312;2022-10-16T15:38:12;26.70;92.90
31729;DHT22;18309;43.658;1.312;2022-10-16T15:40:39;26.50;93.10
31729;DHT22;18309;43.658;1.312;2022-10-16T15:43:05;26.30;93.40
31729;DHT22;18309;43.658;1.312;2022-10-16T15:45:31;26.10;93.40
31729;DHT22;18309;43.658;1.312;2022-10-16T15:47:57;26.00;93.70
31729;DHT22;18309;43.658;1.312;2022-10-16T15:50:22;26.00;93.70
31729;DHT22;18309;43.658;1.312;2022-10-16T15:52:49;25.80;93.70
31729;DHT22;18309;43.658;1.312;2022-10-16T15:55:15;25.80;93.80
31729;DHT22;18309;43.658;1.312;2022-10-16T15:57:41;25.70;94.20
31729;DHT22;18309;43.658;1.312;2022-10-16T16:00:18;25.80;94.30
31729;DHT22;18309;43.658;1.312;2022-10-16T16:02:52;25.50;94.50
31729;DHT22;18309;43.658;1.312;2022-10-16T16:05:18;25.40;94.80
31729;DHT22;18309;43.658;1.312;2022-10-16T16:07:44;25.30;95.20
31729;DHT22;18309;43.658;1.312;2022-10-16T16:10:11;25.20;95.50
31729;DHT22;18309;43.658;1.312;2022-10-16T16:12:37;25.10;95.60
31729;DHT22;18309;43.658;1.312;2022-10-16T16:15:04;25.00;95.90
31729;DHT22;18309;43.658;1.312;2022-10-16T16:17:31;24.90;96.00
31729;DHT22;18309;43.658;1.312;2022-10-16T16:19:57;24.70;96.20
31729;DHT22;18309;43.658;1.312;2022-10-16T16:22:23;24.70;96.50
31729;DHT22;18309;43.658;1.312;2022-10-16T16:24:49;24.70;97.00
31729;DHT22;18309;43.658;1.312;2022-10-16T16:27:15;24.60;96.80
31729;DHT22;18309;43.658;1.312;2022-10-16T16:29:41;24.50;96.90
31729;DHT22;18309;43.658;1.312;2022-10-16T16:32:07;24.50;97.10
31729;DHT22;18309;43.658;1.312;2022-10-16T16:34:32;24.50;97.30
31729;DHT22;18309;43.658;1.312;2022-10-16T16:36:58;24.40;97.50
31729;DHT22;18309;43.658;1.312;2022-10-16T16:39:24;24.30;97.60
31729;DHT22;18309;43.658;1.312;2022-10-16T16:41:50;24.20;97.80
31729;DHT22;18309;43.658;1.312;2022-10-16T16:44:16;24.00;98.10
31729;DHT22;18309;43.658;1.312;2022-10-16T16:46:43;24.00;98.20
31729;DHT22;18309;43.658;1.312;2022-10-16T16:49:11;24.00;98.40
31729;DHT22;18309;43.658;1.312;2022-10-16T16:51:37;23.90;98.70
31729;DHT22;18309;43.658;1.312;2022-10-16T16:54:04;23.70;99.00
31729;DHT22;18309;43.658;1.312;2022-10-16T16:56:30;23.60;99.20
31729;DHT22;18309;43.658;1.312;2022-10-16T16:58:56;23.60;99.30
31729;DHT22;18309;43.658;1.312;2022-10-16T17:01:24;23.80;99.00
31729;DHT22;18309;43.658;1.312;2022-10-16T17:03:51;24.00;98.60
31729;DHT22;18309;43.658;1.312;2022-10-16T17:06:19;24.20;98.40
31729;DHT22;18309;43.658;1.312;2022-10-16T17:08:45;24.20;98.30
31729;DHT22;18309;43.658;1.312;2022-10-16T17:11:19;24.30;98.30
31729;DHT22;18309;43.658;1.312;2022-10-16T17:13:45;24.30;98.20
31729;DHT22;18309;43.658;1.312;2022-10-16T17:16:11;24.30;98.20
31729;DHT22;18309;43.658;1.312;2022-10-16T17:18:40;24.30;98.20
31729;DHT22;18309;43.658;1.312;2022-10-16T17:21:08;24.30;98.20
31729;DHT22;18309;43.658;1.312;2022-10-16T17:23:35;24.30;98.20
31729;DHT22;18309;43.658;1.312;2022-10-16T17:26:06;24.30;98.30
31729;DHT22;18309;43.658;1.312;2022-10-16T17:28:32;24.30;98.40
31729;DHT22;18309;43.658;1.312;2022-10-16T17:31:13;24.30;98.50
31729;DHT22;18309;43.658;1.312;2022-10-16T17:33:39;24.30;98.50
31729;DHT22;18309;43.658;1.312;2022-10-16T17:36:06;24.20;98.50
31729;DHT22;18309;43.658;1.312;2022-10-16T17:38:33;24.20;98.60
31729;DHT22;18309;43.658;1.312;2022-10-16T17:41:04;24.20;98.70
31729;DHT22;18309;43.658;1.312;2022-10-16T17:43:34;24.20;98.70
31729;DHT22;18309;43.658;1.312;2022-10-16T17:46:02;24.10;98.70
31729;DHT22;18309;43.658;1.312;2022-10-16T17:48:27;24.10;98.90